Time,TemperatureF,DewpointF,PressureIn,WindDirection,WindDirectionDegrees,WindSpeedMPH,WindSpeedGustMPH,Humidity,HourlyPrecipIn,Conditions,Clouds,dailyrainin,SoftwareType,DateUTC
2013-09-22 00:13:00,50.0,48.0,29.90,SE,128,0.0,-999.0,92,-99.99,,,-99.99,,2013-09-22 05:13:00,
2013-09-22 00:23:00,50.0,48.0,29.90,SE,128,0.0,-999.0,93,-99.99,,,-99.99,,2013-09-22 05:23:00,
2013-09-22 00:53:00,49.0,47.0,29.91,SE,128,0.0,-999.0,93,-99.99,,,-99.99,,2013-09-22 05:53:00,
2013-09-22 01:22:00,49.0,47.0,29.91,SE,128,0.0,-999.0,93,-99.99,,,-99.99,,2013-09-22 06:22:00,
2013-09-22 01:52:00,48.0,46.0,29.91,SE,128,0.0,-999.0,94,-99.99,,,-99.99,,2013-09-22 06:52:00,
2013-09-22 02:11:00,48.0,46.0,29.91,SE,128,0.0,-999.0,94,-99.99,,,-99.99,,2013-09-22 07:11:00,
2013-09-22 02:21:00,48.0,46.0,29.91,SE,128,0.0,-999.0,94,-99.99,,,-99.99,,2013-09-22 07:21:00,
2013-09-22 02:52:00,47.0,45.0,29.91,SE,128,0.0,-999.0,94,-99.99,,,-99.99,,2013-09-22 07:52:00,
2013-09-22 03:11:00,47.0,45.0,29.91,SE,128,0.0,-999.0,94,-99.99,,,-99.99,,2013-09-22 08:11:00,
2013-09-22 03:22:00,47.0,45.0,29.92,SE,128,0.0,-999.0,94,-99.99,,,-99.99,,2013-09-22 08:22:00,
2013-09-22 03:52:00,46.0,44.0,29.92,SE,128,0.0,-999.0,94,-99.99,,,-99.99,,2013-09-22 08:52:00,
2013-09-22 04:11:00,46.0,45.0,29.92,SE,128,0.0,-999.0,95,-99.99,,,-99.99,,2013-09-22 09:11:00,
2013-09-22 04:22:00,46.0,45.0,29.92,SE,128,0.0,-999.0,95,-99.99,,,-99.99,,2013-09-22 09:22:00,
2013-09-22 04:53:00,46.0,45.0,29.92,SE,128,0.0,-999.0,95,-99.99,,,-99.99,,2013-09-22 09:53:00,
2013-09-22 05:12:00,46.0,45.0,29.93,SE,128,0.0,-999.0,95,-99.99,,,-99.99,,2013-09-22 10:12:00,
2013-09-22 05:23:00,46.0,45.0,29.93,SE,128,0.0,-999.0,95,-99.99,,,-99.99,,2013-09-22 10:23:00,
2013-09-22 05:44:00,46.0,45.0,29.93,SE,128,0.0,-999.0,95,-99.99,,,-99.99,,2013-09-22 10:44:00,
2013-09-22 05:53:00,46.0,45.0,29.94,SE,128,0.0,-999.0,95,-99.99,,,-99.99,,2013-09-22 10:53:00,
2013-09-22 06:22:00,46.0,45.0,29.94,SE,128,0.0,-999.0,95,-99.99,,,-99.99,,2013-09-22 11:22:00,
2013-09-22 06:52:00,45.0,44.0,29.94,SE,128,0.0,-999.0,95,-99.99,,,-99.99,,2013-09-22 11:52:00,
2013-09-22 07:12:00,45.0,44.0,29.95,SE,128,0.0,-999.0,95,-99.99,,,-99.99,,2013-09-22 12:12:00,
2013-09-22 07:22:00,45.0,44.0,29.95,SE,128,0.0,-999.0,95,-99.99,,,-99.99,,2013-09-22 12:22:00,
2013-09-22 07:42:00,45.0,44.0,29.95,SE,128,0.0,-999.0,95,-99.99,,,-99.99,,2013-09-22 12:42:00,
2013-09-22 07:52:00,45.0,44.0,29.95,SE,128,0.0,-999.0,95,-99.99,,,-99.99,,2013-09-22 12:52:00,
2013-09-22 08:12:00,45.0,44.0,29.96,SE,128,0.0,-999.0,95,-99.99,,,-99.99,,2013-09-22 13:12:00,
2013-09-22 08:22:00,45.0,44.0,29.96,SE,128,0.0,-999.0,95,-99.99,,,-99.99,,2013-09-22 13:22:00,
2013-09-22 08:52:00,46.0,45.0,29.96,SE,128,0.0,-999.0,95,-99.99,,,-99.99,,2013-09-22 13:52:00,
2013-09-22 09:11:00,48.0,47.0,29.97,SE,128,0.0,-999.0,96,-99.99,,,-99.99,,2013-09-22 14:11:00,
2013-09-22 09:22:00,49.0,48.0,29.97,SE,128,0.0,-999.0,96,-99.99,,,-99.99,,2013-09-22 14:22:00,
2013-09-22 09:52:00,53.0,52.0,29.97,SE,128,0.0,-999.0,96,-99.99,,,-99.99,,2013-09-22 14:52:00,
2013-09-22 10:12:00,54.0,53.0,29.97,SE,128,0.0,-999.0,96,-99.99,,,-99.99,,2013-09-22 15:12:00,
2013-09-22 10:23:00,56.0,54.0,29.98,SE,128,0.0,-999.0,92,-99.99,,,-99.99,,2013-09-22 15:23:00,
2013-09-22 10:44:00,59.0,55.0,29.98,SE,128,0.0,-999.0,88,-99.99,,,-99.99,,2013-09-22 15:44:00,
2013-09-22 10:54:00,60.0,55.0,29.98,SE,128,0.0,-999.0,85,-99.99,,,-99.99,,2013-09-22 15:54:00,
2013-09-22 11:24:00,65.0,57.0,29.96,SE,128,0.0,-999.0,76,-99.99,,,-99.99,,2013-09-22 16:24:00,
2013-09-22 11:54:00,68.0,58.0,29.96,SE,139,0.0,-999.0,70,-99.99,,,-99.99,,2013-09-22 16:54:00,
2013-09-22 12:12:00,69.0,55.0,29.96,NE,44,0.0,-999.0,61,-99.99,,,-99.99,,2013-09-22 17:12:00,
2013-09-22 12:23:00,69.0,53.0,29.95,ENE,57,2.0,-999.0,57,-99.99,,,-99.99,,2013-09-22 17:23:00,
2013-09-22 12:43:00,70.0,54.0,29.95,ESE,117,0.0,-999.0,57,-99.99,,,-99.99,,2013-09-22 17:43:00,
2013-09-22 12:53:00,71.0,57.0,29.94,South,188,0.0,-999.0,61,-99.99,,,-99.99,,2013-09-22 17:53:00,
2013-09-22 13:13:00,72.0,54.0,29.93,NNW,340,1.0,-999.0,53,-99.99,,,-99.99,,2013-09-22 18:13:00,
2013-09-22 13:22:00,72.0,55.0,29.93,East,87,1.0,-999.0,56,-99.99,,,-99.99,,2013-09-22 18:22:00,
2013-09-22 13:52:00,73.0,54.0,29.91,ENE,75,0.0,-999.0,51,-99.99,,,-99.99,,2013-09-22 18:52:00,
2013-09-22 14:11:00,73.0,54.0,29.90,ENE,60,1.0,-999.0,51,-99.99,,,-99.99,,2013-09-22 19:11:00,
2013-09-22 14:22:00,74.0,55.0,29.90,NE,40,0.0,-999.0,52,-99.99,,,-99.99,,2013-09-22 19:22:00,
2013-09-22 14:52:00,75.0,55.0,29.89,East,82,0.0,-999.0,49,-99.99,,,-99.99,,2013-09-22 19:52:00,
2013-09-22 15:22:00,75.0,54.0,29.88,ENE,62,1.0,-999.0,48,-99.99,,,-99.99,,2013-09-22 20:22:00,
2013-09-22 15:52:00,76.0,55.0,29.87,ENE,69,0.0,-999.0,49,-99.99,,,-99.99,,2013-09-22 20:52:00,
2013-09-22 16:23:00,76.0,52.0,29.86,ESE,119,0.0,-999.0,44,-99.99,,,-99.99,,2013-09-22 21:23:00,
2013-09-22 16:44:00,77.0,54.0,29.85,ESE,109,0.0,-999.0,45,-99.99,,,-99.99,,2013-09-22 21:44:00,
2013-09-22 16:54:00,77.0,55.0,29.85,South,177,0.0,-999.0,47,-99.99,,,-99.99,,2013-09-22 21:54:00,
2013-09-22 17:14:00,77.0,55.0,29.85,ENE,76,0.0,-999.0,47,-99.99,,,-99.99,,2013-09-22 22:14:00,
2013-09-22 17:24:00,77.0,56.0,29.85,SSW,209,0.0,-999.0,49,-99.99,,,-99.99,,2013-09-22 22:24:00,
2013-09-22 17:53:00,77.0,55.0,29.84,East,94,0.0,-999.0,47,-99.99,,,-99.99,,2013-09-22 22:53:00,
2013-09-22 18:12:00,76.0,54.0,29.85,East,94,0.0,-999.0,47,-99.99,,,-99.99,,2013-09-22 23:12:00,
2013-09-22 18:22:00,75.0,55.0,29.84,East,94,0.0,-999.0,50,-99.99,,,-99.99,,2013-09-22 23:22:00,
2013-09-22 18:52:00,74.0,57.0,29.85,East,94,0.0,-999.0,56,-99.99,,,-99.99,,2013-09-22 23:52:00,
2013-09-22 19:12:00,74.0,59.0,29.85,East,94,0.0,-999.0,59,-99.99,,,-99.99,,2013-09-23 00:12:00,
2013-09-22 19:23:00,72.0,59.0,29.85,East,94,0.0,-999.0,64,-99.99,,,-99.99,,2013-09-23 00:23:00,
2013-09-22 19:42:00,69.0,58.0,29.85,East,94,0.0,-999.0,68,-99.99,,,-99.99,,2013-09-23 00:42:00,
2013-09-22 19:53:00,66.0,57.0,29.85,East,94,0.0,-999.0,73,-99.99,,,-99.99,,2013-09-23 00:53:00,
2013-09-22 20:12:00,63.0,56.0,29.85,East,94,0.0,-999.0,79,-99.99,,,-99.99,,2013-09-23 01:12:00,
2013-09-22 20:22:00,61.0,56.0,29.85,East,94,0.0,-999.0,83,-99.99,,,-99.99,,2013-09-23 01:22:00,
2013-09-22 20:43:00,60.0,55.0,29.86,East,94,0.0,-999.0,85,-99.99,,,-99.99,,2013-09-23 01:43:00,
2013-09-22 20:52:00,59.0,55.0,29.85,East,94,0.0,-999.0,86,-99.99,,,-99.99,,2013-09-23 01:52:00,
2013-09-22 21:11:00,58.0,54.0,29.86,East,94,0.0,-999.0,88,-99.99,,,-99.99,,2013-09-23 02:11:00,
2013-09-22 21:22:00,57.0,54.0,29.87,East,94,0.0,-999.0,89,-99.99,,,-99.99,,2013-09-23 02:22:00,
2013-09-22 21:42:00,57.0,54.0,29.87,East,94,0.0,-999.0,89,-99.99,,,-99.99,,2013-09-23 02:42:00,
2013-09-22 21:52:00,56.0,53.0,29.87,East,94,0.0,-999.0,90,-99.99,,,-99.99,,2013-09-23 02:52:00,
2013-09-22 22:12:00,56.0,53.0,29.88,East,94,0.0,-999.0,91,-99.99,,,-99.99,,2013-09-23 03:12:00,
2013-09-22 22:22:00,55.0,52.0,29.88,East,94,0.0,-999.0,91,-99.99,,,-99.99,,2013-09-23 03:22:00,
2013-09-22 22:54:00,54.0,52.0,29.88,East,94,0.0,-999.0,92,-99.99,,,-99.99,,2013-09-23 03:54:00,
2013-09-22 23:14:00,54.0,52.0,29.89,East,94,0.0,-999.0,92,-99.99,,,-99.99,,2013-09-23 04:14:00,
2013-09-22 23:24:00,53.0,51.0,29.89,East,94,0.0,-999.0,92,-99.99,,,-99.99,,2013-09-23 04:24:00,
2013-09-22 23:43:00,53.0,51.0,29.89,East,94,0.0,-999.0,92,-99.99,,,-99.99,,2013-09-23 04:43:00,
2013-09-22 23:53:00,53.0,51.0,29.89,East,94,0.0,-999.0,93,-99.99,,,-99.99,,2013-09-23 04:53:00,